Time;durP1;ratioP1;P1;durP2;ratioP2;P2;SDS_P1;SDS_P2;PMS_P1;PMS_P2;Temp;Humidity;BMP_temperature;BMP_pressure;BME280_temperature;BME280_humidity;BME280_pressure;Samples;Min_cycle;Max_cycle;Signal;HPM_P1;HPM_P2
2022/12/11 00:00:09;;;;;;;0.90;0.90;;;;;;;;;;1861587;77;26280;-42
2022/12/11 00:02:36;;;;;;;0.80;0.80;;;;;;;;;;1860963;77;26304;-42
2022/12/11 00:05:03;;;;;;;0.70;0.70;;;;;;;;;;1866906;76;26650;-50
2022/12/11 00:07:30;;;;;;;0.70;0.70;;;;;;;;;;1862659;75;26285;-39
2022/12/11 00:09:58;;;;;;;0.70;0.70;;;;;;;;;;1863677;76;26170;-40
2022/12/11 00:12:25;;;;;;;0.62;0.62;;;;;;;;;;1865569;77;26159;-50
2022/12/11 00:14:52;;;;;;;0.70;0.70;;;;;;;;;;1866382;76;26186;-47
2022/12/11 00:17:20;;;;;;;0.70;0.70;;;;;;;;;;1867382;76;26631;-41
2022/12/11 00:19:47;;;;;;;0.60;0.60;;;;;;;;;;1865722;75;27035;-50
2022/12/11 00:22:14;;;;;;;4.78;1.02;;;;;;;;;;1864169;76;26675;-48
2022/12/11 00:24:42;;;;;;;0.95;0.60;;;;;;;;;;1863505;76;26200;-45
2022/12/11 00:27:10;;;;;;;0.60;0.60;;;;;;;;;;1863080;76;26155;-48
2022/12/11 00:29:37;;;;;;;0.60;0.60;;;;;;;;;;1863809;76;26263;-48
2022/12/11 00:32:05;;;;;;;0.60;0.60;;;;;;;;;;1865521;76;26160;-46
2022/12/11 00:34:32;;;;;;;0.60;0.60;;;;;;;;;;1865451;76;26221;-40
2022/12/11 00:36:59;;;;;;;0.72;0.72;;;;;;;;;;1868181;76;26171;-41
2022/12/11 00:39:26;;;;;;;0.60;0.60;;;;;;;;;;1867179;76;26163;-46
2022/12/11 00:41:54;;;;;;;0.65;0.60;;;;;;;;;;1867900;76;26163;-61
2022/12/11 00:44:21;;;;;;;0.60;0.60;;;;;;;;;;1864376;76;26245;-38
2022/12/11 00:46:48;;;;;;;0.60;0.60;;;;;;;;;;1868204;76;26162;-41
2022/12/11 00:49:15;;;;;;;0.60;0.60;;;;;;;;;;1868098;76;26706;-44
2022/12/11 00:51:43;;;;;;;0.70;0.70;;;;;;;;;;1865169;76;26585;-49
2022/12/11 00:54:10;;;;;;;0.90;0.68;;;;;;;;;;1865058;76;26663;-56
2022/12/11 00:56:37;;;;;;;0.70;0.70;;;;;;;;;;1862647;76;27071;-46
2022/12/11 00:59:04;;;;;;;0.45;0.45;;;;;;;;;;1866594;76;26221;-45
2022/12/11 01:01:32;;;;;;;0.57;0.57;;;;;;;;;;1866377;76;26204;-45
2022/12/11 01:03:59;;;;;;;0.65;0.65;;;;;;;;;;1865537;76;26221;-40
2022/12/11 01:06:27;;;;;;;0.60;0.60;;;;;;;;;;1867608;76;26228;-38
2022/12/11 01:11:40;;;;;;;0.65;0.65;;;;;;;;;;1864475;76;26234;-40
2022/12/11 01:14:08;;;;;;;0.60;0.60;;;;;;;;;;1862910;76;26198;-43
2022/12/11 01:16:36;;;;;;;1.20;0.60;;;;;;;;;;1866228;76;26229;-41
2022/12/11 01:19:03;;;;;;;0.60;0.60;;;;;;;;;;1864761;76;26169;-41
2022/12/11 01:21:30;;;;;;;0.60;0.60;;;;;;;;;;1868099;76;26869;-44
2022/12/11 01:23:58;;;;;;;0.60;0.60;;;;;;;;;;1866337;76;26163;-44
2022/12/11 01:26:25;;;;;;;0.70;0.70;;;;;;;;;;1866221;76;26570;-46
2022/12/11 01:28:52;;;;;;;1.55;0.68;;;;;;;;;;1868342;76;26116;-42
2022/12/11 01:31:20;;;;;;;0.68;0.68;;;;;;;;;;1854014;76;26256;-47
2022/12/11 01:33:48;;;;;;;0.68;0.68;;;;;;;;;;1862953;77;26239;-51
2022/12/11 01:36:17;;;;;;;0.60;0.60;;;;;;;;;;1851417;77;26275;-45
2022/12/11 01:38:45;;;;;;;0.62;0.62;;;;;;;;;;1858513;77;26168;-42
2022/12/11 01:41:12;;;;;;;0.50;0.50;;;;;;;;;;1861756;77;26194;-51
2022/12/11 01:43:57;;;;;;;0.72;0.72;;;;;;;;;;1863277;77;26246;-49
2022/12/11 01:46:25;;;;;;;0.55;0.50;;;;;;;;;;1866266;77;26161;-38
2022/12/11 01:48:52;;;;;;;0.40;0.40;;;;;;;;;;1863726;77;26171;-47
2022/12/11 01:51:20;;;;;;;0.70;0.70;;;;;;;;;;1865904;77;26191;-46
2022/12/11 01:53:49;;;;;;;0.60;0.60;;;;;;;;;;1860890;77;26869;-40
2022/12/11 01:56:17;;;;;;;0.50;0.50;;;;;;;;;;1862539;77;26672;-42
2022/12/11 01:58:46;;;;;;;0.60;0.60;;;;;;;;;;1866164;77;26211;-42
2022/12/11 02:01:14;;;;;;;0.65;0.65;;;;;;;;;;1861010;76;26159;-41
2022/12/11 02:03:42;;;;;;;0.53;0.53;;;;;;;;;;1866024;76;26196;-39
2022/12/11 02:06:19;;;;;;;0.50;0.50;;;;;;;;;;1853264;75;26263;-44
2022/12/11 02:08:46;;;;;;;0.60;0.60;;;;;;;;;;1826090;77;26692;-46
2022/12/11 02:11:18;;;;;;;0.60;0.60;;;;;;;;;;1860653;77;26719;-39
2022/12/11 02:13:50;;;;;;;0.70;0.70;;;;;;;;;;1865954;77;26200;-39
2022/12/11 02:16:18;;;;;;;0.85;0.40;;;;;;;;;;1864400;77;26242;-45
2022/12/11 02:18:50;;;;;;;0.50;0.50;;;;;;;;;;1856230;77;26171;-40
2022/12/11 02:21:34;;;;;;;0.60;0.60;;;;;;;;;;1865180;76;26203;-52
2022/12/11 02:24:15;;;;;;;0.60;0.60;;;;;;;;;;1857269;76;26159;-46
2022/12/11 02:26:46;;;;;;;0.57;0.57;;;;;;;;;;1860879;77;26151;-44
2022/12/11 02:29:24;;;;;;;0.50;0.50;;;;;;;;;;1852110;77;26731;-40
2022/12/11 02:31:56;;;;;;;0.60;0.60;;;;;;;;;;1832144;77;26224;-45
2022/12/11 02:34:34;;;;;;;0.55;0.55;;;;;;;;;;1864545;76;26185;-46
2022/12/11 02:37:03;;;;;;;0.50;0.50;;;;;;;;;;1862311;75;26182;-42
2022/12/11 02:39:31;;;;;;;1.15;0.50;;;;;;;;;;1864024;77;26239;-45
2022/12/11 02:41:59;;;;;;;0.60;0.60;;;;;;;;;;1863366;77;26194;-39
2022/12/11 02:44:28;;;;;;;0.50;0.50;;;;;;;;;;1861993;77;26243;-44
2022/12/11 02:46:55;;;;;;;0.50;0.50;;;;;;;;;;1866126;77;26212;-44
2022/12/11 02:49:23;;;;;;;0.60;0.60;;;;;;;;;;1864850;77;26159;-39
2022/12/11 02:51:51;;;;;;;0.70;0.42;;;;;;;;;;1859020;77;26321;-44
2022/12/11 02:54:20;;;;;;;0.50;0.50;;;;;;;;;;1858385;77;26182;-41
2022/12/11 02:56:49;;;;;;;0.50;0.50;;;;;;;;;;1862766;75;26824;-47
2022/12/11 02:59:27;;;;;;;0.50;0.50;;;;;;;;;;1863445;77;26633;-44
2022/12/11 03:01:54;;;;;;;0.55;0.55;;;;;;;;;;1864791;76;26233;-40
2022/12/11 03:04:23;;;;;;;0.60;0.60;;;;;;;;;;1857078;75;26253;-40
2022/12/11 03:06:52;;;;;;;0.42;0.42;;;;;;;;;;1866103;77;26218;-37
2022/12/11 03:09:20;;;;;;;0.60;0.60;;;;;;;;;;1865952;77;26768;-39
2022/12/11 03:11:47;;;;;;;0.60;0.60;;;;;;;;;;1866144;77;26208;-44
2022/12/11 03:14:14;;;;;;;0.60;0.60;;;;;;;;;;1861650;77;26323;-38
2022/12/11 03:16:43;;;;;;;0.85;0.55;;;;;;;;;;1853024;77;26171;-41
2022/12/11 03:19:18;;;;;;;0.50;0.50;;;;;;;;;;1862774;76;26604;-49
2022/12/11 03:21:47;;;;;;;0.50;0.50;;;;;;;;;;1850709;77;26168;-41
2022/12/11 03:24:18;;;;;;;0.37;0.37;;;;;;;;;;1865886;76;26202;-40
2022/12/11 03:26:47;;;;;;;0.50;0.50;;;;;;;;;;1859757;77;26136;-47
2022/12/11 03:29:16;;;;;;;0.50;0.50;;;;;;;;;;1860439;77;26191;-44
2022/12/11 03:31:44;;;;;;;0.47;0.47;;;;;;;;;;1859811;77;26322;-40
2022/12/11 03:34:13;;;;;;;0.70;0.70;;;;;;;;;;1868579;77;26156;-44
2022/12/11 03:36:42;;;;;;;0.40;0.40;;;;;;;;;;1867385;76;26300;-44
2022/12/11 03:39:10;;;;;;;0.60;0.60;;;;;;;;;;1863390;76;26670;-47
2022/12/11 03:41:39;;;;;;;0.40;0.40;;;;;;;;;;1867460;76;26671;-41
2022/12/11 03:44:07;;;;;;;0.60;0.60;;;;;;;;;;1866339;76;26248;-40
2022/12/11 03:46:35;;;;;;;0.70;0.70;;;;;;;;;;1874881;75;26261;-44
2022/12/11 03:49:07;;;;;;;0.60;0.50;;;;;;;;;;1853310;76;26195;-45
2022/12/11 03:51:35;;;;;;;0.57;0.57;;;;;;;;;;1863296;77;27046;-46
2022/12/11 03:54:03;;;;;;;0.72;0.62;;;;;;;;;;1867739;76;26147;-42
2022/12/11 03:56:31;;;;;;;0.50;0.50;;;;;;;;;;1865633;77;26624;-45
2022/12/11 03:58:59;;;;;;;1.27;0.50;;;;;;;;;;1861750;76;26170;-43
2022/12/11 04:01:26;;;;;;;0.60;0.60;;;;;;;;;;1858352;76;26657;-39
2022/12/11 04:03:53;;;;;;;0.50;0.50;;;;;;;;;;1864263;77;26221;-38
2022/12/11 04:06:21;;;;;;;0.57;0.57;;;;;;;;;;1867934;75;26585;-39
2022/12/11 04:08:48;;;;;;;0.57;0.57;;;;;;;;;;1869514;76;26258;-44
2022/12/11 04:11:33;;;;;;;0.60;0.60;;;;;;;;;;1858451;77;26172;-42
2022/12/11 04:16:50;;;;;;;0.50;0.50;;;;;;;;;;1854969;77;26149;-42
2022/12/11 04:24:48;;;;;;;0.50;0.50;;;;;;;;;;1860657;76;26258;-41
2022/12/11 04:27:47;;;;;;;0.70;0.70;;;;;;;;;;1868378;76;26616;-45
2022/12/11 04:29:44;;;;;;;0.60;0.60;;;;;;;;;;1860314;76;26171;-40
2022/12/11 04:32:12;;;;;;;0.60;0.60;;;;;;;;;;1870022;76;26203;-43
2022/12/11 04:34:39;;;;;;;0.60;0.60;;;;;;;;;;1875046;76;26257;-46
2022/12/11 04:37:06;;;;;;;0.50;0.50;;;;;;;;;;1873067;76;26187;-52
2022/12/11 04:39:34;;;;;;;0.60;0.60;;;;;;;;;;1873714;76;26221;-46
2022/12/11 04:42:01;;;;;;;0.60;0.60;;;;;;;;;;1870404;76;26178;-46
2022/12/11 04:44:28;;;;;;;1.25;0.60;;;;;;;;;;1874039;76;26171;-41
2022/12/11 04:46:56;;;;;;;0.70;0.70;;;;;;;;;;1871812;76;26171;-39
2022/12/11 04:49:23;;;;;;;0.60;0.60;;;;;;;;;;1875461;76;26230;-38
2022/12/11 04:51:51;;;;;;;0.40;0.40;;;;;;;;;;1875257;76;26245;-45
2022/12/11 04:54:18;;;;;;;0.60;0.60;;;;;;;;;;1875062;76;26576;-39
2022/12/11 04:56:45;;;;;;;0.70;0.70;;;;;;;;;;1875402;76;26717;-38
2022/12/11 04:59:13;;;;;;;0.50;0.50;;;;;;;;;;1870593;76;26785;-45
2022/12/11 05:01:40;;;;;;;0.60;0.60;;;;;;;;;;1870328;76;26163;-39
2022/12/11 05:04:08;;;;;;;0.72;0.72;;;;;;;;;;1873914;76;26258;-45
2022/12/11 05:06:35;;;;;;;0.60;0.60;;;;;;;;;;1872726;76;26156;-43
2022/12/11 05:09:02;;;;;;;0.65;0.65;;;;;;;;;;1874718;76;26156;-43
2022/12/11 05:11:30;;;;;;;0.50;0.50;;;;;;;;;;1875134;76;26695;-43
2022/12/11 05:13:57;;;;;;;0.60;0.60;;;;;;;;;;1875389;76;26159;-43
2022/12/11 05:16:24;;;;;;;0.57;0.57;;;;;;;;;;1872774;76;26630;-40
2022/12/11 05:18:51;;;;;;;0.60;0.60;;;;;;;;;;1886537;75;26653;-45
2022/12/11 05:21:19;;;;;;;0.53;0.50;;;;;;;;;;1872966;76;27040;-38
2022/12/11 05:23:46;;;;;;;0.60;0.60;;;;;;;;;;1875267;76;26584;-38
2022/12/11 05:26:15;;;;;;;0.60;0.60;;;;;;;;;;1875140;76;26178;-46
2022/12/11 05:28:43;;;;;;;0.60;0.60;;;;;;;;;;1872488;76;26123;-40
2022/12/11 05:31:14;;;;;;;0.68;0.68;;;;;;;;;;1871971;76;26155;-49
2022/12/11 05:33:42;;;;;;;0.70;0.70;;;;;;;;;;1852784;76;26624;-43
2022/12/11 05:36:11;;;;;;;0.55;0.55;;;;;;;;;;1850601;77;26229;-42
2022/12/11 05:38:38;;;;;;;0.72;0.70;;;;;;;;;;1861940;76;26265;-39
2022/12/11 05:41:06;;;;;;;0.70;0.70;;;;;;;;;;1863772;77;26156;-54
2022/12/11 05:43:34;;;;;;;1.55;0.60;;;;;;;;;;1863448;77;26265;-40
2022/12/11 05:46:06;;;;;;;0.60;0.60;;;;;;;;;;1860025;75;26588;-46
2022/12/11 05:48:33;;;;;;;0.80;0.50;;;;;;;;;;1860086;77;26596;-43
2022/12/11 05:51:01;;;;;;;0.65;0.65;;;;;;;;;;1860722;77;26220;-44
2022/12/11 05:53:28;;;;;;;0.60;0.60;;;;;;;;;;1854209;77;26745;-41
2022/12/11 05:55:57;;;;;;;0.60;0.60;;;;;;;;;;1858013;77;26203;-47
2022/12/11 05:58:24;;;;;;;0.70;0.70;;;;;;;;;;1861758;76;26190;-44
2022/12/11 06:00:52;;;;;;;0.80;0.80;;;;;;;;;;1854810;77;26206;-46
2022/12/11 06:03:19;;;;;;;0.75;0.75;;;;;;;;;;1861408;77;26191;-43
2022/12/11 06:05:46;;;;;;;1.07;0.90;;;;;;;;;;1859154;77;26661;-39
2022/12/11 06:08:13;;;;;;;0.70;0.70;;;;;;;;;;1875533;75;26705;-48
2022/12/11 06:10:47;;;;;;;1.02;0.90;;;;;;;;;;1864359;75;26965;-41
2022/12/11 06:13:14;;;;;;;2.47;0.85;;;;;;;;;;1862139;77;26159;-44
2022/12/11 06:15:42;;;;;;;2.35;1.00;;;;;;;;;;1858425;77;26187;-43
2022/12/11 06:18:09;;;;;;;0.98;0.98;;;;;;;;;;1870334;75;27215;-47
2022/12/11 06:20:37;;;;;;;1.17;1.17;;;;;;;;;;1865757;76;26300;-46
2022/12/11 06:23:04;;;;;;;4.00;1.20;;;;;;;;;;1859745;77;26229;-43
2022/12/11 06:25:31;;;;;;;3.62;1.60;;;;;;;;;;1862875;77;26272;-41
2022/12/11 06:27:58;;;;;;;2.35;1.80;;;;;;;;;;1859527;77;26720;-42
2022/12/11 06:30:26;;;;;;;5.85;2.20;;;;;;;;;;1864276;76;26915;-39
2022/12/11 06:32:53;;;;;;;6.83;2.62;;;;;;;;;;1863012;76;27122;-43
2022/12/11 06:35:23;;;;;;;7.17;2.40;;;;;;;;;;1867599;76;27074;-39
2022/12/11 06:37:50;;;;;;;4.58;2.42;;;;;;;;;;1866795;76;26297;-43
2022/12/11 06:40:18;;;;;;;5.33;2.70;;;;;;;;;;1863093;77;26178;-40
2022/12/11 06:42:45;;;;;;;11.55;2.75;;;;;;;;;;1864498;75;26277;-45
2022/12/11 06:45:12;;;;;;;8.95;2.87;;;;;;;;;;1863632;76;26225;-46
2022/12/11 06:47:39;;;;;;;8.03;2.65;;;;;;;;;;1865490;77;26233;-39
2022/12/11 06:50:07;;;;;;;5.25;2.60;;;;;;;;;;1864148;76;26167;-44
2022/12/11 06:52:34;;;;;;;5.92;2.80;;;;;;;;;;1866372;76;26734;-43
2022/12/11 06:55:01;;;;;;;7.20;2.42;;;;;;;;;;1865346;77;26632;-46
2022/12/11 06:57:28;;;;;;;4.42;2.35;;;;;;;;;;1862674;76;26808;-41
2022/12/11 06:59:56;;;;;;;7.85;2.27;;;;;;;;;;1862521;77;26823;-51
2022/12/11 07:02:23;;;;;;;6.95;2.10;;;;;;;;;;1867092;75;26303;-45
2022/12/11 07:04:50;;;;;;;3.35;2.05;;;;;;;;;;1867284;75;26159;-51
2022/12/11 07:07:18;;;;;;;5.70;2.00;;;;;;;;;;1853879;77;26205;-43
2022/12/11 07:09:46;;;;;;;4.03;1.98;;;;;;;;;;1866974;76;26175;-42
2022/12/11 07:12:13;;;;;;;4.60;2.00;;;;;;;;;;1866154;76;26225;-49
2022/12/11 07:14:40;;;;;;;3.15;1.85;;;;;;;;;;1860612;77;26206;-44
2022/12/11 07:17:07;;;;;;;5.97;1.90;;;;;;;;;;1860931;77;26577;-48
2022/12/11 07:19:35;;;;;;;2.85;1.80;;;;;;;;;;1863481;75;27005;-45
2022/12/11 07:22:02;;;;;;;4.90;1.77;;;;;;;;;;1863649;77;26675;-41
2022/12/11 07:24:29;;;;;;;1.85;1.37;;;;;;;;;;1857994;77;26288;-53
2022/12/11 07:26:56;;;;;;;2.72;1.35;;;;;;;;;;1864893;76;26437;-39
2022/12/11 07:29:24;;;;;;;3.47;1.75;;;;;;;;;;1865819;76;26492;-42
2022/12/11 07:31:51;;;;;;;4.00;1.42;;;;;;;;;;1861255;76;26199;-42
2022/12/11 07:34:18;;;;;;;2.92;1.42;;;;;;;;;;1864538;76;26221;-45
2022/12/11 07:36:45;;;;;;;2.98;1.52;;;;;;;;;;1864419;76;26199;-45
2022/12/11 07:39:13;;;;;;;2.15;1.42;;;;;;;;;;1864662;77;26651;-47
2022/12/11 07:41:40;;;;;;;3.33;1.35;;;;;;;;;;1862610;77;26288;-44
2022/12/11 07:44:07;;;;;;;1.30;1.20;;;;;;;;;;1862908;77;26171;-48
2022/12/11 07:46:34;;;;;;;3.15;1.40;;;;;;;;;;1865737;75;26207;-41
2022/12/11 07:49:02;;;;;;;2.58;1.50;;;;;;;;;;1859377;75;26218;-53
2022/12/11 07:51:30;;;;;;;2.00;1.20;;;;;;;;;;1858473;77;26229;-48
2022/12/11 07:53:59;;;;;;;4.55;1.40;;;;;;;;;;1859014;75;26300;-40
2022/12/11 07:56:27;;;;;;;4.75;1.20;;;;;;;;;;1858148;75;26233;-41
2022/12/11 07:58:54;;;;;;;6.95;1.70;;;;;;;;;;1853645;76;26981;-44
2022/12/11 08:01:24;;;;;;;5.55;1.37;;;;;;;;;;1858109;77;26163;-40
2022/12/11 08:03:52;;;;;;;2.90;1.40;;;;;;;;;;1856857;76;26235;-43
2022/12/11 08:06:20;;;;;;;1.30;1.20;;;;;;;;;;1854688;77;26764;-45
2022/12/11 08:08:47;;;;;;;2.60;1.20;;;;;;;;;;1858187;75;26203;-46
2022/12/11 08:11:14;;;;;;;6.00;1.20;;;;;;;;;;1863611;75;26244;-43
2022/12/11 08:13:43;;;;;;;2.00;1.12;;;;;;;;;;1862404;75;26234;-38
2022/12/11 08:16:12;;;;;;;2.27;1.15;;;;;;;;;;1862093;75;26592;-42
2022/12/11 08:18:39;;;;;;;5.95;1.12;;;;;;;;;;1868957;75;26620;-39
2022/12/11 08:21:07;;;;;;;2.77;1.10;;;;;;;;;;1854853;77;26218;-40
2022/12/11 08:23:34;;;;;;;1.20;1.10;;;;;;;;;;1857934;77;26651;-44
2022/12/11 08:26:03;;;;;;;2.30;1.20;;;;;;;;;;1865086;77;26652;-45
2022/12/11 08:28:30;;;;;;;2.95;0.95;;;;;;;;;;1863511;75;26156;-44
2022/12/11 08:30:58;;;;;;;1.37;1.00;;;;;;;;;;1863699;75;26588;-48
2022/12/11 08:33:25;;;;;;;2.72;1.10;;;;;;;;;;1862484;76;26199;-42
2022/12/11 08:35:53;;;;;;;1.07;1.07;;;;;;;;;;1858778;75;26634;-44
2022/12/11 08:38:20;;;;;;;0.95;0.95;;;;;;;;;;1854810;76;26732;-43
2022/12/11 08:40:47;;;;;;;1.22;1.00;;;;;;;;;;1862645;75;26705;-54
2022/12/11 08:43:15;;;;;;;1.50;0.93;;;;;;;;;;1852756;76;28174;-50
2022/12/11 08:45:42;;;;;;;3.90;0.90;;;;;;;;;;1862433;76;26292;-43
2022/12/11 08:48:09;;;;;;;2.42;1.10;;;;;;;;;;1859663;76;26237;-48
2022/12/11 08:50:36;;;;;;;2.92;1.00;;;;;;;;;;1863855;76;26215;-44
2022/12/11 08:53:04;;;;;;;1.77;0.98;;;;;;;;;;1862944;77;26700;-45
2022/12/11 08:55:31;;;;;;;1.90;0.90;;;;;;;;;;1863645;76;26671;-46
2022/12/11 08:57:59;;;;;;;1.25;0.70;;;;;;;;;;1859690;77;26292;-43
2022/12/11 09:00:26;;;;;;;0.90;0.80;;;;;;;;;;1861647;77;26812;-43
2022/12/11 09:02:53;;;;;;;0.75;0.75;;;;;;;;;;1862650;76;26168;-44
2022/12/11 09:05:20;;;;;;;0.85;0.80;;;;;;;;;;1865128;77;26179;-47
2022/12/11 09:07:48;;;;;;;0.78;0.78;;;;;;;;;;1861392;75;26147;-49
2022/12/11 09:10:15;;;;;;;1.05;1.00;;;;;;;;;;1862688;75;26297;-40
2022/12/11 09:12:42;;;;;;;1.50;1.00;;;;;;;;;;1859276;75;26230;-38
2022/12/11 09:15:10;;;;;;;1.42;1.00;;;;;;;;;;1857306;77;26215;-37
2022/12/11 09:17:37;;;;;;;1.60;1.22;;;;;;;;;;1845271;75;28363;-47
2022/12/11 09:20:05;;;;;;;0.90;0.90;;;;;;;;;;1864310;76;26164;-44
2022/12/11 09:22:33;;;;;;;2.62;1.10;;;;;;;;;;1862462;75;26222;-44
2022/12/11 09:25:00;;;;;;;3.25;1.10;;;;;;;;;;1862779;77;26222;-40
2022/12/11 09:27:28;;;;;;;1.75;1.02;;;;;;;;;;1859718;76;26654;-42
2022/12/11 09:29:55;;;;;;;1.10;1.00;;;;;;;;;;1867578;76;26481;-45
2022/12/11 09:32:22;;;;;;;0.80;0.80;;;;;;;;;;1864659;76;26273;-37
2022/12/11 09:34:52;;;;;;;0.82;0.82;;;;;;;;;;1865195;76;26222;-41
2022/12/11 09:37:19;;;;;;;0.98;0.98;;;;;;;;;;1858948;76;26163;-51
2022/12/11 09:39:46;;;;;;;0.80;0.80;;;;;;;;;;1856803;76;26334;-42
2022/12/11 09:42:30;;;;;;;0.85;0.85;;;;;;;;;;1861121;76;25707;-42
2022/12/11 09:44:59;;;;;;;0.80;0.80;;;;;;;;;;1856041;76;26644;-38
2022/12/11 09:47:34;;;;;;;1.65;1.00;;;;;;;;;;1858451;76;26206;-41
2022/12/11 09:50:05;;;;;;;1.07;0.98;;;;;;;;;;1859248;76;26241;-39
2022/12/11 09:52:49;;;;;;;1.47;0.90;;;;;;;;;;1854507;77;26287;-39
2022/12/11 09:55:18;;;;;;;1.80;0.75;;;;;;;;;;1856521;75;26217;-49
2022/12/11 09:57:50;;;;;;;1.00;0.90;;;;;;;;;;1860573;77;26628;-40
2022/12/11 10:00:18;;;;;;;0.80;0.80;;;;;;;;;;1862114;77;26163;-41
2022/12/11 10:03:06;;;;;;;0.90;0.85;;;;;;;;;;1858558;77;26198;-37
2022/12/11 10:05:34;;;;;;;2.00;0.90;;;;;;;;;;1768580;80;26433;-41
2022/12/11 10:08:03;;;;;;;1.02;0.90;;;;;;;;;;1770620;80;26253;-49
2022/12/11 10:10:41;;;;;;;1.37;0.93;;;;;;;;;;1807260;77;26160;-42
2022/12/11 10:13:22;;;;;;;1.67;1.07;;;;;;;;;;1862124;77;26175;-52
2022/12/11 10:15:54;;;;;;;1.10;1.00;;;;;;;;;;1863993;77;26151;-38
2022/12/11 10:18:23;;;;;;;1.00;0.90;;;;;;;;;;1862646;77;26299;-40
2022/12/11 10:20:51;;;;;;;2.83;0.80;;;;;;;;;;1867763;76;26168;-43
2022/12/11 10:23:20;;;;;;;1.20;0.85;;;;;;;;;;1861911;75;26626;-44
2022/12/11 10:25:49;;;;;;;0.90;0.90;;;;;;;;;;1862103;76;26143;-45
2022/12/11 10:28:18;;;;;;;2.52;1.30;;;;;;;;;;1861290;76;26225;-44
2022/12/11 10:30:47;;;;;;;1.65;0.98;;;;;;;;;;1864404;77;26211;-42
2022/12/11 10:33:15;;;;;;;1.82;1.00;;;;;;;;;;1864323;76;26167;-41
2022/12/11 10:35:53;;;;;;;0.85;0.85;;;;;;;;;;1869597;76;26245;-38
2022/12/11 10:38:26;;;;;;;1.27;0.80;;;;;;;;;;1868933;76;26182;-37
2022/12/11 10:41:04;;;;;;;0.85;0.85;;;;;;;;;;1873369;76;26164;-42
2022/12/11 10:43:32;;;;;;;0.80;0.80;;;;;;;;;;1862720;76;26166;-38
2022/12/11 10:45:59;;;;;;;0.90;0.90;;;;;;;;;;1873342;76;26209;-43
2022/12/11 10:48:26;;;;;;;2.22;0.80;;;;;;;;;;1873128;76;26269;-37
2022/12/11 10:50:55;;;;;;;0.90;0.90;;;;;;;;;;1873915;76;26128;-37
2022/12/11 10:53:23;;;;;;;0.80;0.80;;;;;;;;;;1871316;76;26220;-44
2022/12/11 10:55:51;;;;;;;0.90;0.90;;;;;;;;;;1869129;76;26147;-37
2022/12/11 10:58:20;;;;;;;0.93;0.93;;;;;;;;;;1874774;76;26669;-42
2022/12/11 11:00:49;;;;;;;1.00;1.00;;;;;;;;;;1867390;76;26217;-42
2022/12/11 11:03:23;;;;;;;0.78;0.78;;;;;;;;;;1869977;76;26248;-38
2022/12/11 11:05:52;;;;;;;0.90;0.80;;;;;;;;;;1872562;76;25975;-42
2022/12/11 11:08:24;;;;;;;0.88;0.82;;;;;;;;;;1862008;76;26678;-47
2022/12/11 11:10:58;;;;;;;0.90;0.90;;;;;;;;;;1853401;76;26224;-45
2022/12/11 11:13:27;;;;;;;1.52;0.93;;;;;;;;;;1874753;76;26569;-39
2022/12/11 11:16:08;;;;;;;0.82;0.80;;;;;;;;;;1866791;76;26660;-41
2022/12/11 11:18:35;;;;;;;0.90;0.90;;;;;;;;;;1878925;75;26577;-45
2022/12/11 11:21:03;;;;;;;0.82;0.82;;;;;;;;;;1866373;76;26248;-38
2022/12/11 11:23:30;;;;;;;0.90;0.90;;;;;;;;;;1870875;76;26230;-40
2022/12/11 11:25:59;;;;;;;0.95;0.90;;;;;;;;;;1873581;76;26520;-43
2022/12/11 11:28:28;;;;;;;0.80;0.80;;;;;;;;;;1874231;76;26154;-38
2022/12/11 11:31:05;;;;;;;1.15;1.00;;;;;;;;;;1874952;76;26694;-39
2022/12/11 11:33:34;;;;;;;0.98;0.98;;;;;;;;;;1870025;76;26299;-44
2022/12/11 11:36:02;;;;;;;1.10;0.90;;;;;;;;;;1864424;76;26264;-43
2022/12/11 11:38:36;;;;;;;0.90;0.90;;;;;;;;;;1854981;76;26779;-39
2022/12/11 11:41:05;;;;;;;19.62;1.10;;;;;;;;;;1855670;76;26200;-37
2022/12/11 11:43:37;;;;;;;5.83;1.20;;;;;;;;;;1856227;76;26792;-38
2022/12/11 11:46:18;;;;;;;12.33;1.40;;;;;;;;;;1854914;76;26687;-37
2022/12/11 11:48:46;;;;;;;7.90;1.20;;;;;;;;;;1847876;77;26238;-37
2022/12/11 11:51:15;;;;;;;3.65;1.00;;;;;;;;;;1862014;76;26637;-43
2022/12/11 11:53:44;;;;;;;3.58;1.45;;;;;;;;;;1858817;76;26179;-52
2022/12/11 11:56:22;;;;;;;0.95;0.90;;;;;;;;;;1861734;76;26137;-43
2022/12/11 11:58:58;;;;;;;2.40;0.90;;;;;;;;;;1854257;76;26233;-43
2022/12/11 12:01:25;;;;;;;3.58;1.00;;;;;;;;;;1853014;76;26226;-44
2022/12/11 12:03:52;;;;;;;1.82;1.00;;;;;;;;;;1858463;76;26148;-43
2022/12/11 12:06:21;;;;;;;2.58;1.32;;;;;;;;;;1855498;76;26238;-40
2022/12/11 12:08:56;;;;;;;3.80;1.05;;;;;;;;;;1855249;77;26182;-46
2022/12/11 12:11:25;;;;;;;0.90;0.90;;;;;;;;;;1833093;77;27008;-47
2022/12/11 12:13:53;;;;;;;2.02;0.80;;;;;;;;;;1849377;77;26185;-42
2022/12/11 12:16:31;;;;;;;0.82;0.72;;;;;;;;;;1850598;76;26178;-46
2022/12/11 12:19:03;;;;;;;3.80;1.00;;;;;;;;;;1860212;76;26633;-42
2022/12/11 12:21:32;;;;;;;0.80;0.80;;;;;;;;;;1860888;76;26648;-38
2022/12/11 12:24:04;;;;;;;0.75;0.75;;;;;;;;;;1856214;76;26207;-39
2022/12/11 12:26:32;;;;;;;0.82;0.70;;;;;;;;;;1854270;76;26280;-41
2022/12/11 12:29:04;;;;;;;2.15;1.10;;;;;;;;;;1854646;77;26191;-43
2022/12/11 12:31:33;;;;;;;2.05;0.90;;;;;;;;;;1842481;77;25567;-50
2022/12/11 12:34:01;;;;;;;1.17;1.07;;;;;;;;;;1851393;77;26635;-43
2022/12/11 12:36:42;;;;;;;1.22;0.90;;;;;;;;;;1865550;75;26777;-44
2022/12/11 12:39:23;;;;;;;2.27;1.15;;;;;;;;;;1874310;75;26158;-48
2022/12/11 12:42:09;;;;;;;3.00;0.90;;;;;;;;;;1870164;75;26246;-56
2022/12/11 12:44:41;;;;;;;2.75;1.10;;;;;;;;;;1868958;75;26317;-43
2022/12/11 12:47:10;;;;;;;1.30;0.80;;;;;;;;;;1863682;76;26217;-53
2022/12/11 12:49:39;;;;;;;0.90;0.90;;;;;;;;;;1865611;76;26159;-39
2022/12/11 12:52:08;;;;;;;1.17;0.90;;;;;;;;;;1866757;76;26135;-43
2022/12/11 12:54:35;;;;;;;0.80;0.80;;;;;;;;;;1872040;75;26279;-41
2022/12/11 12:57:03;;;;;;;0.80;0.80;;;;;;;;;;1874337;76;26700;-40
2022/12/11 12:59:31;;;;;;;0.95;0.95;;;;;;;;;;1873373;76;26293;-40
2022/12/11 13:01:59;;;;;;;2.58;1.00;;;;;;;;;;1866709;75;26662;-39
2022/12/11 13:04:41;;;;;;;0.90;0.90;;;;;;;;;;1869633;75;26605;-39
2022/12/11 13:07:19;;;;;;;1.10;0.90;;;;;;;;;;1874532;75;26140;-44
2022/12/11 13:09:57;;;;;;;2.08;1.00;;;;;;;;;;1858219;75;26265;-40
2022/12/11 13:12:41;;;;;;;0.95;0.95;;;;;;;;;;1874372;76;26151;-36
2022/12/11 13:15:27;;;;;;;1.07;1.00;;;;;;;;;;1874347;76;26643;-42
2022/12/11 13:17:54;;;;;;;1.75;1.00;;;;;;;;;;1872322;75;26244;-39
2022/12/11 13:20:22;;;;;;;1.40;0.90;;;;;;;;;;1869232;76;26205;-40
2022/12/11 13:22:54;;;;;;;1.50;1.00;;;;;;;;;;1873386;76;26371;-37
2022/12/11 13:25:23;;;;;;;1.10;0.80;;;;;;;;;;1859039;76;26190;-37
2022/12/11 13:27:51;;;;;;;0.68;0.68;;;;;;;;;;1874439;76;26252;-37
2022/12/11 13:30:21;;;;;;;0.90;0.90;;;;;;;;;;1872376;76;26135;-42
2022/12/11 13:32:56;;;;;;;0.90;0.90;;;;;;;;;;1873403;75;26152;-38
2022/12/11 13:35:23;;;;;;;2.90;0.98;;;;;;;;;;1870208;76;26240;-45
2022/12/11 13:37:52;;;;;;;0.78;0.78;;;;;;;;;;1872900;76;26240;-37
2022/12/11 13:40:21;;;;;;;0.90;0.90;;;;;;;;;;1868652;76;26128;-42
2022/12/11 13:42:50;;;;;;;0.98;0.90;;;;;;;;;;1866452;75;26139;-40
2022/12/11 13:45:19;;;;;;;0.85;0.85;;;;;;;;;;1872133;76;26214;-40
2022/12/11 13:47:46;;;;;;;0.70;0.70;;;;;;;;;;1874859;76;26266;-39
2022/12/11 13:50:15;;;;;;;0.90;0.90;;;;;;;;;;1875112;75;26580;-39
2022/12/11 13:52:44;;;;;;;1.10;0.90;;;;;;;;;;1873775;75;26175;-41
2022/12/11 13:55:15;;;;;;;0.70;0.70;;;;;;;;;;1867323;75;26164;-48
2022/12/11 13:57:45;;;;;;;0.82;0.82;;;;;;;;;;1872775;75;26240;-39
2022/12/11 14:00:23;;;;;;;0.80;0.80;;;;;;;;;;1869345;75;26201;-39
2022/12/11 14:02:51;;;;;;;0.80;0.80;;;;;;;;;;1873193;75;26227;-42
2022/12/11 14:05:19;;;;;;;1.77;0.98;;;;;;;;;;1869966;76;26179;-43
2022/12/11 14:07:48;;;;;;;0.95;0.80;;;;;;;;;;1879770;75;26159;-40
2022/12/11 14:10:17;;;;;;;0.72;0.72;;;;;;;;;;1871946;76;26233;-45
2022/12/11 14:13:04;;;;;;;0.72;0.72;;;;;;;;;;1871501;76;26205;-41
2022/12/11 14:15:32;;;;;;;0.78;0.78;;;;;;;;;;1871969;76;26206;-39
2022/12/11 14:18:00;;;;;;;2.33;0.80;;;;;;;;;;1871319;76;26206;-38
2022/12/11 14:20:28;;;;;;;0.80;0.80;;;;;;;;;;1871427;76;26221;-43
2022/12/11 14:23:06;;;;;;;1.65;0.80;;;;;;;;;;1873854;76;26269;-39
2022/12/11 14:25:33;;;;;;;0.90;0.90;;;;;;;;;;1862060;76;26229;-54
2022/12/11 14:28:01;;;;;;;0.93;0.93;;;;;;;;;;1865270;76;26207;-39
2022/12/11 14:30:29;;;;;;;1.00;0.93;;;;;;;;;;1867302;76;26826;-40
2022/12/11 14:32:58;;;;;;;0.98;0.75;;;;;;;;;;1871820;76;26287;-40
2022/12/11 14:35:29;;;;;;;1.00;0.78;;;;;;;;;;1872496;75;26151;-38
2022/12/11 14:37:58;;;;;;;1.00;1.00;;;;;;;;;;1865222;77;26684;-44
2022/12/11 14:40:26;;;;;;;0.90;0.90;;;;;;;;;;1858591;76;26218;-44
2022/12/11 14:42:55;;;;;;;0.90;0.90;;;;;;;;;;1858273;76;26176;-41
2022/12/11 14:45:24;;;;;;;1.07;0.95;;;;;;;;;;1863343;76;26293;-43
2022/12/11 14:47:52;;;;;;;0.80;0.80;;;;;;;;;;1860701;76;26615;-48
2022/12/11 14:50:24;;;;;;;0.90;0.90;;;;;;;;;;1862483;76;26180;-43
2022/12/11 14:52:53;;;;;;;1.00;1.00;;;;;;;;;;1857919;76;26159;-42
2022/12/11 14:55:31;;;;;;;0.90;0.90;;;;;;;;;;1865009;77;26215;-39
2022/12/11 14:58:00;;;;;;;0.78;0.78;;;;;;;;;;1860802;77;26541;-43
2022/12/11 15:00:32;;;;;;;2.55;0.90;;;;;;;;;;1860312;77;26219;-45
2022/12/11 15:03:00;;;;;;;0.95;0.90;;;;;;;;;;1861101;77;26221;-42
2022/12/11 15:05:28;;;;;;;0.72;0.72;;;;;;;;;;1863338;77;26944;-50